sensor_id;sensor_type;location;lat;lon;timestamp;P1;durP1;ratioP1;P2;durP2;ratioP2
19554;SDS011;9924;50.828;6.440;2022-07-06T00:01:21;6.82;;;1.48;;
19554;SDS011;9924;50.828;6.440;2022-07-06T00:03:47;5.13;;;1.40;;
19554;SDS011;9924;50.828;6.440;2022-07-06T00:06:13;5.57;;;1.77;;
19554;SDS011;9924;50.828;6.440;2022-07-06T00:08:41;7.70;;;1.42;;
19554;SDS011;9924;50.828;6.440;2022-07-06T00:11:07;5.47;;;1.40;;
19554;SDS011;9924;50.828;6.440;2022-07-06T00:13:33;9.02;;;1.20;;
19554;SDS011;9924;50.828;6.440;2022-07-06T00:15:59;6.22;;;1.58;;
19554;SDS011;9924;50.828;6.440;2022-07-06T00:18:24;6.72;;;1.65;;
19554;SDS011;9924;50.828;6.440;2022-07-06T00:20:50;5.80;;;1.42;;
19554;SDS011;9924;50.828;6.440;2022-07-06T00:23:16;6.25;;;1.63;;
19554;SDS011;9924;50.828;6.440;2022-07-06T00:25:42;3.53;;;1.55;;
19554;SDS011;9924;50.828;6.440;2022-07-06T00:28:07;6.07;;;2.25;;
19554;SDS011;9924;50.828;6.440;2022-07-06T00:30:33;5.68;;;1.58;;
19554;SDS011;9924;50.828;6.440;2022-07-06T00:32:59;5.95;;;1.60;;
19554;SDS011;9924;50.828;6.440;2022-07-06T00:35:25;8.82;;;2.15;;
19554;SDS011;9924;50.828;6.440;2022-07-06T00:37:51;4.68;;;1.60;;
19554;SDS011;9924;50.828;6.440;2022-07-06T00:40:17;7.40;;;1.58;;
19554;SDS011;9924;50.828;6.440;2022-07-06T00:42:47;2.40;;;1.58;;
19554;SDS011;9924;50.828;6.440;2022-07-06T00:45:13;5.47;;;1.60;;
19554;SDS011;9924;50.828;6.440;2022-07-06T00:47:40;5.78;;;1.90;;
19554;SDS011;9924;50.828;6.440;2022-07-06T00:50:07;5.97;;;1.67;;
19554;SDS011;9924;50.828;6.440;2022-07-06T00:52:40;4.20;;;1.63;;
19554;SDS011;9924;50.828;6.440;2022-07-06T00:55:08;3.63;;;1.65;;
19554;SDS011;9924;50.828;6.440;2022-07-06T00:57:35;5.70;;;2.00;;
19554;SDS011;9924;50.828;6.440;2022-07-06T01:00:02;4.57;;;1.48;;
19554;SDS011;9924;50.828;6.440;2022-07-06T01:02:32;3.33;;;1.88;;
19554;SDS011;9924;50.828;6.440;2022-07-06T01:04:59;6.68;;;1.77;;
19554;SDS011;9924;50.828;6.440;2022-07-06T01:07:25;3.97;;;1.55;;
19554;SDS011;9924;50.828;6.440;2022-07-06T01:09:52;5.00;;;1.60;;
19554;SDS011;9924;50.828;6.440;2022-07-06T01:12:19;5.65;;;1.80;;
19554;SDS011;9924;50.828;6.440;2022-07-06T01:14:45;3.65;;;1.63;;
19554;SDS011;9924;50.828;6.440;2022-07-06T01:17:11;4.97;;;2.00;;
19554;SDS011;9924;50.828;6.440;2022-07-06T01:19:38;7.25;;;1.85;;
19554;SDS011;9924;50.828;6.440;2022-07-06T01:22:04;3.85;;;1.48;;
19554;SDS011;9924;50.828;6.440;2022-07-06T01:24:30;5.15;;;1.75;;
19554;SDS011;9924;50.828;6.440;2022-07-06T01:26:55;6.05;;;2.00;;
19554;SDS011;9924;50.828;6.440;2022-07-06T01:29:22;9.85;;;2.10;;
19554;SDS011;9924;50.828;6.440;2022-07-06T01:31:48;4.18;;;1.90;;
19554;SDS011;9924;50.828;6.440;2022-07-06T01:34:18;3.92;;;1.92;;
19554;SDS011;9924;50.828;6.440;2022-07-06T01:36:45;5.10;;;2.10;;
19554;SDS011;9924;50.828;6.440;2022-07-06T01:39:11;5.15;;;1.90;;
19554;SDS011;9924;50.828;6.440;2022-07-06T01:41:37;3.85;;;2.03;;
19554;SDS011;9924;50.828;6.440;2022-07-06T01:44:03;6.97;;;2.13;;
19554;SDS011;9924;50.828;6.440;2022-07-06T01:46:29;4.18;;;2.05;;
19554;SDS011;9924;50.828;6.440;2022-07-06T01:48:55;3.97;;;1.67;;
19554;SDS011;9924;50.828;6.440;2022-07-06T01:51:21;5.13;;;2.20;;
19554;SDS011;9924;50.828;6.440;2022-07-06T01:53:48;4.30;;;1.88;;
19554;SDS011;9924;50.828;6.440;2022-07-06T01:56:14;7.53;;;2.35;;
19554;SDS011;9924;50.828;6.440;2022-07-06T01:58:41;5.25;;;1.95;;
19554;SDS011;9924;50.828;6.440;2022-07-06T02:01:10;4.40;;;2.50;;
19554;SDS011;9924;50.828;6.440;2022-07-06T02:03:37;4.18;;;2.33;;
19554;SDS011;9924;50.828;6.440;2022-07-06T02:06:04;4.25;;;1.70;;
19554;SDS011;9924;50.828;6.440;2022-07-06T02:08:31;3.17;;;1.95;;
19554;SDS011;9924;50.828;6.440;2022-07-06T02:10:57;6.60;;;2.42;;
19554;SDS011;9924;50.828;6.440;2022-07-06T02:13:23;6.43;;;2.65;;
19554;SDS011;9924;50.828;6.440;2022-07-06T02:15:49;5.15;;;2.22;;
19554;SDS011;9924;50.828;6.440;2022-07-06T02:18:18;3.45;;;1.98;;
19554;SDS011;9924;50.828;6.440;2022-07-06T02:20:44;3.70;;;1.70;;
19554;SDS011;9924;50.828;6.440;2022-07-06T02:23:10;7.18;;;2.17;;
19554;SDS011;9924;50.828;6.440;2022-07-06T02:25:35;3.28;;;2.30;;
19554;SDS011;9924;50.828;6.440;2022-07-06T02:28:01;5.28;;;2.67;;
19554;SDS011;9924;50.828;6.440;2022-07-06T02:30:28;2.78;;;1.98;;
19554;SDS011;9924;50.828;6.440;2022-07-06T02:32:53;2.95;;;1.90;;
19554;SDS011;9924;50.828;6.440;2022-07-06T02:35:19;5.43;;;2.38;;
19554;SDS011;9924;50.828;6.440;2022-07-06T02:37:45;4.93;;;2.17;;
19554;SDS011;9924;50.828;6.440;2022-07-06T02:40:11;3.55;;;2.00;;
19554;SDS011;9924;50.828;6.440;2022-07-06T02:42:37;3.35;;;2.30;;
19554;SDS011;9924;50.828;6.440;2022-07-06T02:45:03;3.22;;;2.15;;
19554;SDS011;9924;50.828;6.440;2022-07-06T02:47:29;4.60;;;1.95;;
19554;SDS011;9924;50.828;6.440;2022-07-06T02:49:55;2.58;;;2.00;;
19554;SDS011;9924;50.828;6.440;2022-07-06T02:52:21;4.15;;;2.25;;
19554;SDS011;9924;50.828;6.440;2022-07-06T02:54:47;3.13;;;1.98;;
19554;SDS011;9924;50.828;6.440;2022-07-06T02:57:14;6.10;;;2.33;;
19554;SDS011;9924;50.828;6.440;2022-07-06T02:59:40;4.13;;;2.20;;
19554;SDS011;9924;50.828;6.440;2022-07-06T03:02:06;4.05;;;2.03;;
19554;SDS011;9924;50.828;6.440;2022-07-06T03:04:32;3.88;;;2.53;;
19554;SDS011;9924;50.828;6.440;2022-07-06T03:07:00;4.28;;;1.70;;
19554;SDS011;9924;50.828;6.440;2022-07-06T03:09:26;3.20;;;2.50;;
19554;SDS011;9924;50.828;6.440;2022-07-06T03:11:55;2.65;;;2.17;;
19554;SDS011;9924;50.828;6.440;2022-07-06T03:14:22;3.78;;;2.75;;
19554;SDS011;9924;50.828;6.440;2022-07-06T03:16:50;3.33;;;2.40;;
19554;SDS011;9924;50.828;6.440;2022-07-06T03:19:16;4.40;;;2.28;;
19554;SDS011;9924;50.828;6.440;2022-07-06T03:21:42;7.35;;;2.70;;
19554;SDS011;9924;50.828;6.440;2022-07-06T03:24:07;4.53;;;2.22;;
19554;SDS011;9924;50.828;6.440;2022-07-06T03:26:33;5.43;;;2.72;;
19554;SDS011;9924;50.828;6.440;2022-07-06T03:28:59;4.63;;;2.85;;
19554;SDS011;9924;50.828;6.440;2022-07-06T03:31:24;6.60;;;2.50;;
19554;SDS011;9924;50.828;6.440;2022-07-06T03:33:51;5.22;;;2.55;;
19554;SDS011;9924;50.828;6.440;2022-07-06T03:36:17;3.88;;;2.15;;
19554;SDS011;9924;50.828;6.440;2022-07-06T03:38:43;4.05;;;2.63;;
19554;SDS011;9924;50.828;6.440;2022-07-06T03:41:09;3.75;;;2.55;;
19554;SDS011;9924;50.828;6.440;2022-07-06T03:43:34;3.60;;;2.53;;
19554;SDS011;9924;50.828;6.440;2022-07-06T03:46:00;3.40;;;2.70;;
19554;SDS011;9924;50.828;6.440;2022-07-06T03:48:26;5.80;;;2.55;;
19554;SDS011;9924;50.828;6.440;2022-07-06T03:50:54;5.25;;;2.50;;
19554;SDS011;9924;50.828;6.440;2022-07-06T03:53:20;3.42;;;2.42;;
19554;SDS011;9924;50.828;6.440;2022-07-06T03:55:46;4.97;;;2.15;;
19554;SDS011;9924;50.828;6.440;2022-07-06T03:58:32;4.93;;;2.70;;
19554;SDS011;9924;50.828;6.440;2022-07-06T04:00:58;5.32;;;2.65;;
19554;SDS011;9924;50.828;6.440;2022-07-06T04:03:24;5.28;;;2.40;;
19554;SDS011;9924;50.828;6.440;2022-07-06T04:05:49;3.90;;;2.63;;
19554;SDS011;9924;50.828;6.440;2022-07-06T04:08:15;9.60;;;3.28;;
19554;SDS011;9924;50.828;6.440;2022-07-06T04:10:41;4.95;;;2.70;;
19554;SDS011;9924;50.828;6.440;2022-07-06T04:13:06;3.13;;;2.67;;
19554;SDS011;9924;50.828;6.440;2022-07-06T04:15:32;3.85;;;2.75;;
19554;SDS011;9924;50.828;6.440;2022-07-06T04:17:58;5.95;;;2.65;;
19554;SDS011;9924;50.828;6.440;2022-07-06T04:20:24;6.53;;;2.90;;
19554;SDS011;9924;50.828;6.440;2022-07-06T04:22:51;6.20;;;3.20;;
19554;SDS011;9924;50.828;6.440;2022-07-06T04:25:17;6.47;;;3.30;;
19554;SDS011;9924;50.828;6.440;2022-07-06T04:27:43;5.85;;;3.30;;
19554;SDS011;9924;50.828;6.440;2022-07-06T04:30:09;6.97;;;2.90;;
19554;SDS011;9924;50.828;6.440;2022-07-06T04:32:35;6.90;;;2.83;;
19554;SDS011;9924;50.828;6.440;2022-07-06T04:35:02;4.70;;;2.78;;
19554;SDS011;9924;50.828;6.440;2022-07-06T04:37:29;6.57;;;3.10;;
19554;SDS011;9924;50.828;6.440;2022-07-06T04:39:55;6.65;;;3.45;;
19554;SDS011;9924;50.828;6.440;2022-07-06T04:42:21;6.97;;;3.08;;
19554;SDS011;9924;50.828;6.440;2022-07-06T04:44:46;8.20;;;3.20;;
19554;SDS011;9924;50.828;6.440;2022-07-06T04:47:12;8.45;;;2.72;;
19554;SDS011;9924;50.828;6.440;2022-07-06T04:49:38;4.60;;;2.88;;
19554;SDS011;9924;50.828;6.440;2022-07-06T04:52:04;6.47;;;2.95;;
19554;SDS011;9924;50.828;6.440;2022-07-06T04:54:31;4.45;;;2.72;;
19554;SDS011;9924;50.828;6.440;2022-07-06T04:56:56;6.20;;;2.90;;
19554;SDS011;9924;50.828;6.440;2022-07-06T04:59:22;5.30;;;2.90;;
19554;SDS011;9924;50.828;6.440;2022-07-06T05:01:48;4.82;;;2.75;;
19554;SDS011;9924;50.828;6.440;2022-07-06T05:04:14;7.18;;;2.95;;
19554;SDS011;9924;50.828;6.440;2022-07-06T05:06:42;4.60;;;3.40;;
19554;SDS011;9924;50.828;6.440;2022-07-06T05:09:07;8.43;;;3.22;;
19554;SDS011;9924;50.828;6.440;2022-07-06T05:11:33;7.70;;;2.95;;
19554;SDS011;9924;50.828;6.440;2022-07-06T05:13:59;5.90;;;3.03;;
19554;SDS011;9924;50.828;6.440;2022-07-06T05:16:24;4.82;;;3.10;;
19554;SDS011;9924;50.828;6.440;2022-07-06T05:18:50;5.82;;;3.30;;
19554;SDS011;9924;50.828;6.440;2022-07-06T05:21:19;7.53;;;3.92;;
19554;SDS011;9924;50.828;6.440;2022-07-06T05:23:44;8.60;;;3.80;;
19554;SDS011;9924;50.828;6.440;2022-07-06T05:26:10;9.20;;;4.45;;
19554;SDS011;9924;50.828;6.440;2022-07-06T05:28:36;7.10;;;3.38;;
19554;SDS011;9924;50.828;6.440;2022-07-06T05:31:02;9.13;;;3.53;;
19554;SDS011;9924;50.828;6.440;2022-07-06T05:33:28;9.52;;;3.40;;
19554;SDS011;9924;50.828;6.440;2022-07-06T05:35:53;5.50;;;3.03;;
19554;SDS011;9924;50.828;6.440;2022-07-06T05:38:19;7.15;;;2.63;;
19554;SDS011;9924;50.828;6.440;2022-07-06T05:40:45;5.50;;;3.15;;
19554;SDS011;9924;50.828;6.440;2022-07-06T05:43:11;4.68;;;2.92;;
19554;SDS011;9924;50.828;6.440;2022-07-06T05:45:37;6.85;;;2.60;;
19554;SDS011;9924;50.828;6.440;2022-07-06T05:48:03;6.25;;;2.50;;
19554;SDS011;9924;50.828;6.440;2022-07-06T05:50:47;3.95;;;2.15;;
19554;SDS011;9924;50.828;6.440;2022-07-06T05:53:13;2.80;;;1.60;;
19554;SDS011;9924;50.828;6.440;2022-07-06T05:55:39;5.57;;;2.00;;
19554;SDS011;9924;50.828;6.440;2022-07-06T05:58:05;5.75;;;1.83;;
19554;SDS011;9924;50.828;6.440;2022-07-06T06:00:32;3.42;;;1.77;;
19554;SDS011;9924;50.828;6.440;2022-07-06T06:02:58;3.60;;;1.60;;
19554;SDS011;9924;50.828;6.440;2022-07-06T06:05:24;2.85;;;1.35;;
19554;SDS011;9924;50.828;6.440;2022-07-06T06:07:51;4.07;;;1.52;;
19554;SDS011;9924;50.828;6.440;2022-07-06T06:10:18;4.50;;;1.27;;
19554;SDS011;9924;50.828;6.440;2022-07-06T06:12:44;2.25;;;1.20;;
19554;SDS011;9924;50.828;6.440;2022-07-06T06:15:11;2.97;;;1.20;;
19554;SDS011;9924;50.828;6.440;2022-07-06T06:17:36;4.93;;;1.13;;
19554;SDS011;9924;50.828;6.440;2022-07-06T06:20:07;2.83;;;1.30;;
19554;SDS011;9924;50.828;6.440;2022-07-06T06:22:43;5.75;;;1.88;;
19554;SDS011;9924;50.828;6.440;2022-07-06T06:25:13;1.33;;;1.02;;
19554;SDS011;9924;50.828;6.440;2022-07-06T06:27:41;2.97;;;0.90;;
19554;SDS011;9924;50.828;6.440;2022-07-06T06:30:07;2.38;;;1.17;;
19554;SDS011;9924;50.828;6.440;2022-07-06T06:32:33;3.00;;;1.08;;
19554;SDS011;9924;50.828;6.440;2022-07-06T06:34:59;2.38;;;1.10;;
19554;SDS011;9924;50.828;6.440;2022-07-06T06:37:25;4.97;;;0.95;;
19554;SDS011;9924;50.828;6.440;2022-07-06T06:39:50;2.70;;;0.93;;
19554;SDS011;9924;50.828;6.440;2022-07-06T06:42:16;4.70;;;1.30;;
19554;SDS011;9924;50.828;6.440;2022-07-06T06:44:42;4.53;;;1.08;;
19554;SDS011;9924;50.828;6.440;2022-07-06T06:47:08;4.90;;;1.23;;
19554;SDS011;9924;50.828;6.440;2022-07-06T06:49:34;7.63;;;0.95;;
19554;SDS011;9924;50.828;6.440;2022-07-06T06:51:59;4.43;;;1.33;;
19554;SDS011;9924;50.828;6.440;2022-07-06T06:54:26;3.15;;;1.23;;
19554;SDS011;9924;50.828;6.440;2022-07-06T06:56:51;2.70;;;1.05;;
19554;SDS011;9924;50.828;6.440;2022-07-06T06:59:17;8.65;;;1.48;;
19554;SDS011;9924;50.828;6.440;2022-07-06T07:01:43;1.50;;;1.27;;
19554;SDS011;9924;50.828;6.440;2022-07-06T07:04:09;4.18;;;1.20;;
19554;SDS011;9924;50.828;6.440;2022-07-06T07:06:35;3.88;;;0.90;;
19554;SDS011;9924;50.828;6.440;2022-07-06T07:09:01;3.22;;;1.23;;
19554;SDS011;9924;50.828;6.440;2022-07-06T07:11:27;5.25;;;1.00;;
19554;SDS011;9924;50.828;6.440;2022-07-06T07:13:52;2.58;;;1.00;;
19554;SDS011;9924;50.828;6.440;2022-07-06T07:16:18;5.30;;;1.00;;
19554;SDS011;9924;50.828;6.440;2022-07-06T07:18:44;4.05;;;0.80;;
19554;SDS011;9924;50.828;6.440;2022-07-06T07:21:10;7.70;;;1.13;;
19554;SDS011;9924;50.828;6.440;2022-07-06T07:23:35;1.95;;;0.70;;
19554;SDS011;9924;50.828;6.440;2022-07-06T07:26:01;5.90;;;0.77;;
19554;SDS011;9924;50.828;6.440;2022-07-06T07:28:27;1.77;;;0.65;;
19554;SDS011;9924;50.828;6.440;2022-07-06T07:30:53;2.92;;;0.70;;
19554;SDS011;9924;50.828;6.440;2022-07-06T07:33:19;3.22;;;0.70;;
19554;SDS011;9924;50.828;6.440;2022-07-06T07:35:44;4.60;;;0.88;;
19554;SDS011;9924;50.828;6.440;2022-07-06T07:38:10;2.20;;;0.52;;
19554;SDS011;9924;50.828;6.440;2022-07-06T07:40:36;1.80;;;0.80;;
19554;SDS011;9924;50.828;6.440;2022-07-06T07:43:01;1.83;;;0.70;;
19554;SDS011;9924;50.828;6.440;2022-07-06T07:45:27;2.88;;;0.70;;
19554;SDS011;9924;50.828;6.440;2022-07-06T07:47:53;4.28;;;0.77;;
19554;SDS011;9924;50.828;6.440;2022-07-06T07:50:19;1.52;;;0.57;;
19554;SDS011;9924;50.828;6.440;2022-07-06T07:52:45;2.45;;;0.90;;
19554;SDS011;9924;50.828;6.440;2022-07-06T07:55:11;2.35;;;0.60;;
19554;SDS011;9924;50.828;6.440;2022-07-06T07:57:36;2.30;;;0.70;;
19554;SDS011;9924;50.828;6.440;2022-07-06T08:00:06;2.88;;;0.85;;
19554;SDS011;9924;50.828;6.440;2022-07-06T08:02:32;5.00;;;0.85;;
19554;SDS011;9924;50.828;6.440;2022-07-06T08:04:58;1.15;;;0.80;;
19554;SDS011;9924;50.828;6.440;2022-07-06T08:07:23;3.30;;;0.90;;
19554;SDS011;9924;50.828;6.440;2022-07-06T08:09:49;1.63;;;1.30;;
19554;SDS011;9924;50.828;6.440;2022-07-06T08:12:15;1.40;;;0.93;;
19554;SDS011;9924;50.828;6.440;2022-07-06T08:14:41;1.58;;;0.70;;
19554;SDS011;9924;50.828;6.440;2022-07-06T08:17:06;1.55;;;1.00;;
19554;SDS011;9924;50.828;6.440;2022-07-06T08:19:32;1.35;;;0.82;;
19554;SDS011;9924;50.828;6.440;2022-07-06T08:21:58;2.70;;;1.10;;
19554;SDS011;9924;50.828;6.440;2022-07-06T08:24:24;2.50;;;0.63;;
19554;SDS011;9924;50.828;6.440;2022-07-06T08:26:49;1.42;;;0.90;;
19554;SDS011;9924;50.828;6.440;2022-07-06T08:29:15;1.65;;;0.75;;
19554;SDS011;9924;50.828;6.440;2022-07-06T08:31:44;1.60;;;0.95;;
19554;SDS011;9924;50.828;6.440;2022-07-06T08:34:10;3.40;;;0.98;;
19554;SDS011;9924;50.828;6.440;2022-07-06T08:36:36;2.58;;;0.80;;
19554;SDS011;9924;50.828;6.440;2022-07-06T08:39:02;0.85;;;0.70;;
19554;SDS011;9924;50.828;6.440;2022-07-06T08:41:28;1.15;;;0.70;;
19554;SDS011;9924;50.828;6.440;2022-07-06T08:43:55;1.02;;;0.70;;
19554;SDS011;9924;50.828;6.440;2022-07-06T08:46:21;1.90;;;1.02;;
19554;SDS011;9924;50.828;6.440;2022-07-06T08:48:47;3.40;;;0.90;;
19554;SDS011;9924;50.828;6.440;2022-07-06T08:51:14;2.15;;;1.10;;
19554;SDS011;9924;50.828;6.440;2022-07-06T08:53:41;1.83;;;0.70;;
19554;SDS011;9924;50.828;6.440;2022-07-06T08:56:07;2.88;;;1.13;;
19554;SDS011;9924;50.828;6.440;2022-07-06T08:58:33;3.53;;;1.10;;
19554;SDS011;9924;50.828;6.440;2022-07-06T09:01:00;2.35;;;0.98;;
19554;SDS011;9924;50.828;6.440;2022-07-06T09:03:26;4.25;;;0.80;;
19554;SDS011;9924;50.828;6.440;2022-07-06T09:05:53;2.65;;;1.00;;
19554;SDS011;9924;50.828;6.440;2022-07-06T09:08:26;2.03;;;0.90;;
19554;SDS011;9924;50.828;6.440;2022-07-06T09:10:54;1.50;;;0.90;;
19554;SDS011;9924;50.828;6.440;2022-07-06T09:13:20;3.90;;;1.20;;
19554;SDS011;9924;50.828;6.440;2022-07-06T09:15:45;2.40;;;1.10;;
19554;SDS011;9924;50.828;6.440;2022-07-06T09:18:11;2.60;;;0.85;;
19554;SDS011;9924;50.828;6.440;2022-07-06T09:20:37;4.10;;;1.00;;
19554;SDS011;9924;50.828;6.440;2022-07-06T09:23:04;6.82;;;1.02;;
19554;SDS011;9924;50.828;6.440;2022-07-06T09:25:30;3.70;;;0.90;;
19554;SDS011;9924;50.828;6.440;2022-07-06T09:27:57;1.20;;;0.85;;
19554;SDS011;9924;50.828;6.440;2022-07-06T09:30:24;2.00;;;0.85;;
19554;SDS011;9924;50.828;6.440;2022-07-06T09:32:52;2.92;;;1.08;;
19554;SDS011;9924;50.828;6.440;2022-07-06T09:35:20;3.72;;;0.90;;
19554;SDS011;9924;50.828;6.440;2022-07-06T09:38:11;1.00;;;0.57;;
19554;SDS011;9924;50.828;6.440;2022-07-06T09:40:45;1.85;;;0.70;;
19554;SDS011;9924;50.828;6.440;2022-07-06T09:43:12;2.97;;;0.52;;
19554;SDS011;9924;50.828;6.440;2022-07-06T09:45:46;2.25;;;0.85;;
19554;SDS011;9924;50.828;6.440;2022-07-06T09:48:24;1.85;;;0.93;;
19554;SDS011;9924;50.828;6.440;2022-07-06T09:50:54;1.67;;;0.60;;
19554;SDS011;9924;50.828;6.440;2022-07-06T09:53:23;2.55;;;0.52;;
19554;SDS011;9924;50.828;6.440;2022-07-06T09:55:51;1.73;;;0.60;;
19554;SDS011;9924;50.828;6.440;2022-07-06T09:58:19;3.33;;;0.70;;
19554;SDS011;9924;50.828;6.440;2022-07-06T10:00:46;1.33;;;1.00;;
19554;SDS011;9924;50.828;6.440;2022-07-06T10:03:12;2.22;;;0.70;;
19554;SDS011;9924;50.828;6.440;2022-07-06T10:05:40;4.88;;;0.73;;
19554;SDS011;9924;50.828;6.440;2022-07-06T10:08:07;2.38;;;0.73;;
19554;SDS011;9924;50.828;6.440;2022-07-06T10:10:35;6.70;;;0.88;;
19554;SDS011;9924;50.828;6.440;2022-07-06T10:13:02;1.17;;;0.75;;
19554;SDS011;9924;50.828;6.440;2022-07-06T10:15:29;1.02;;;0.60;;
19554;SDS011;9924;50.828;6.440;2022-07-06T10:18:02;2.03;;;0.80;;
19554;SDS011;9924;50.828;6.440;2022-07-06T10:20:30;2.45;;;0.70;;
19554;SDS011;9924;50.828;6.440;2022-07-06T10:22:58;3.50;;;0.70;;
19554;SDS011;9924;50.828;6.440;2022-07-06T10:25:25;1.13;;;0.60;;
19554;SDS011;9924;50.828;6.440;2022-07-06T10:27:52;1.02;;;0.63;;
19554;SDS011;9924;50.828;6.440;2022-07-06T10:30:19;1.95;;;0.55;;
19554;SDS011;9924;50.828;6.440;2022-07-06T10:32:46;3.15;;;0.70;;
19554;SDS011;9924;50.828;6.440;2022-07-06T10:35:15;3.90;;;0.73;;
19554;SDS011;9924;50.828;6.440;2022-07-06T10:37:42;1.73;;;0.50;;
19554;SDS011;9924;50.828;6.440;2022-07-06T10:40:08;1.20;;;0.50;;
19554;SDS011;9924;50.828;6.440;2022-07-06T10:43:02;2.60;;;0.70;;
19554;SDS011;9924;50.828;6.440;2022-07-06T10:53:11;2.58;;;0.57;;
19554;SDS011;9924;50.828;6.440;2022-07-06T10:55:39;0.95;;;0.40;;
19554;SDS011;9924;50.828;6.440;2022-07-06T10:58:06;2.72;;;0.55;;
19554;SDS011;9924;50.828;6.440;2022-07-06T11:06:10;2.72;;;0.52;;
19554;SDS011;9924;50.828;6.440;2022-07-06T11:08:44;1.42;;;0.40;;
19554;SDS011;9924;50.828;6.440;2022-07-06T11:11:16;3.40;;;0.60;;
19554;SDS011;9924;50.828;6.440;2022-07-06T11:14:05;2.20;;;0.60;;
19554;SDS011;9924;50.828;6.440;2022-07-06T11:19:15;2.22;;;0.50;;
19554;SDS011;9924;50.828;6.440;2022-07-06T11:21:48;1.55;;;0.50;;
19554;SDS011;9924;50.828;6.440;2022-07-06T11:26:46;0.90;;;0.50;;
19554;SDS011;9924;50.828;6.440;2022-07-06T11:29:13;1.27;;;0.50;;
19554;SDS011;9924;50.828;6.440;2022-07-06T11:31:41;1.70;;;0.95;;
19554;SDS011;9924;50.828;6.440;2022-07-06T11:34:12;3.13;;;0.50;;
19554;SDS011;9924;50.828;6.440;2022-07-06T11:36:42;0.90;;;0.50;;
19554;SDS011;9924;50.828;6.440;2022-07-06T11:39:08;3.58;;;0.55;;
19554;SDS011;9924;50.828;6.440;2022-07-06T11:41:34;1.25;;;0.60;;
19554;SDS011;9924;50.828;6.440;2022-07-06T11:44:00;1.15;;;0.43;;
19554;SDS011;9924;50.828;6.440;2022-07-06T11:46:27;0.70;;;0.47;;
19554;SDS011;9924;50.828;6.440;2022-07-06T11:48:58;0.57;;;0.30;;
19554;SDS011;9924;50.828;6.440;2022-07-06T11:51:26;1.98;;;0.60;;
19554;SDS011;9924;50.828;6.440;2022-07-06T11:53:54;2.88;;;0.82;;
19554;SDS011;9924;50.828;6.440;2022-07-06T11:56:22;3.03;;;1.02;;
19554;SDS011;9924;50.828;6.440;2022-07-06T11:58:58;2.13;;;0.77;;
19554;SDS011;9924;50.828;6.440;2022-07-06T12:01:25;1.77;;;0.50;;
19554;SDS011;9924;50.828;6.440;2022-07-06T12:03:53;2.70;;;0.47;;
19554;SDS011;9924;50.828;6.440;2022-07-06T12:06:32;4.53;;;0.63;;
19554;SDS011;9924;50.828;6.440;2022-07-06T12:08:58;4.65;;;0.60;;
19554;SDS011;9924;50.828;6.440;2022-07-06T12:11:29;3.03;;;0.70;;
19554;SDS011;9924;50.828;6.440;2022-07-06T12:13:57;2.55;;;0.70;;
19554;SDS011;9924;50.828;6.440;2022-07-06T12:16:35;2.28;;;0.50;;
19554;SDS011;9924;50.828;6.440;2022-07-06T12:19:04;1.60;;;0.50;;
19554;SDS011;9924;50.828;6.440;2022-07-06T12:21:31;1.15;;;0.60;;
19554;SDS011;9924;50.828;6.440;2022-07-06T12:23:58;1.00;;;0.60;;
19554;SDS011;9924;50.828;6.440;2022-07-06T12:26:25;3.22;;;0.80;;
19554;SDS011;9924;50.828;6.440;2022-07-06T12:29:01;2.55;;;0.80;;
19554;SDS011;9924;50.828;6.440;2022-07-06T12:31:38;3.78;;;1.42;;
19554;SDS011;9924;50.828;6.440;2022-07-06T12:34:11;0.90;;;0.50;;
19554;SDS011;9924;50.828;6.440;2022-07-06T12:36:54;5.13;;;0.70;;
19554;SDS011;9924;50.828;6.440;2022-07-06T12:39:21;1.25;;;0.40;;
19554;SDS011;9924;50.828;6.440;2022-07-06T12:41:53;0.75;;;0.50;;
19554;SDS011;9924;50.828;6.440;2022-07-06T12:44:43;1.02;;;0.45;;
19554;SDS011;9924;50.828;6.440;2022-07-06T12:47:11;2.22;;;0.55;;
19554;SDS011;9924;50.828;6.440;2022-07-06T12:49:38;3.22;;;0.70;;
19554;SDS011;9924;50.828;6.440;2022-07-06T12:54:40;4.75;;;0.77;;
19554;SDS011;9924;50.828;6.440;2022-07-06T12:57:20;1.20;;;0.52;;
19554;SDS011;9924;50.828;6.440;2022-07-06T13:04:56;1.00;;;0.90;;
19554;SDS011;9924;50.828;6.440;2022-07-06T13:07:27;3.58;;;0.70;;
19554;SDS011;9924;50.828;6.440;2022-07-06T13:09:54;1.90;;;0.52;;
19554;SDS011;9924;50.828;6.440;2022-07-06T13:12:20;1.95;;;0.75;;
19554;SDS011;9924;50.828;6.440;2022-07-06T13:14:47;5.72;;;0.73;;
19554;SDS011;9924;50.828;6.440;2022-07-06T13:17:14;4.78;;;0.80;;
19554;SDS011;9924;50.828;6.440;2022-07-06T13:19:40;3.03;;;0.70;;
19554;SDS011;9924;50.828;6.440;2022-07-06T13:22:06;2.30;;;0.60;;
19554;SDS011;9924;50.828;6.440;2022-07-06T13:24:32;3.03;;;0.73;;
19554;SDS011;9924;50.828;6.440;2022-07-06T13:54:13;3.35;;;0.80;;
19554;SDS011;9924;50.828;6.440;2022-07-06T13:56:39;2.58;;;0.80;;
19554;SDS011;9924;50.828;6.440;2022-07-06T13:59:07;1.58;;;0.75;;
19554;SDS011;9924;50.828;6.440;2022-07-06T14:01:33;2.75;;;1.52;;
19554;SDS011;9924;50.828;6.440;2022-07-06T14:04:06;3.65;;;1.00;;
19554;SDS011;9924;50.828;6.440;2022-07-06T14:06:32;3.65;;;0.90;;
19554;SDS011;9924;50.828;6.440;2022-07-06T14:08:58;1.20;;;0.70;;
19554;SDS011;9924;50.828;6.440;2022-07-06T14:11:24;2.83;;;0.82;;
19554;SDS011;9924;50.828;6.440;2022-07-06T14:13:49;9.23;;;1.17;;
19554;SDS011;9924;50.828;6.440;2022-07-06T14:16:15;3.85;;;0.95;;
19554;SDS011;9924;50.828;6.440;2022-07-06T14:18:41;1.00;;;0.60;;
19554;SDS011;9924;50.828;6.440;2022-07-06T14:21:08;1.02;;;0.60;;
19554;SDS011;9924;50.828;6.440;2022-07-06T14:23:34;2.40;;;0.77;;
19554;SDS011;9924;50.828;6.440;2022-07-06T14:26:00;3.35;;;0.68;;
19554;SDS011;9924;50.828;6.440;2022-07-06T14:28:26;2.03;;;0.70;;
19554;SDS011;9924;50.828;6.440;2022-07-06T14:30:51;1.23;;;0.57;;
19554;SDS011;9924;50.828;6.440;2022-07-06T14:33:17;2.20;;;0.77;;
19554;SDS011;9924;50.828;6.440;2022-07-06T14:35:45;2.08;;;0.70;;
19554;SDS011;9924;50.828;6.440;2022-07-06T14:38:19;4.07;;;1.00;;
19554;SDS011;9924;50.828;6.440;2022-07-06T14:40:45;2.65;;;1.13;;
19554;SDS011;9924;50.828;6.440;2022-07-06T14:43:13;1.15;;;0.70;;
19554;SDS011;9924;50.828;6.440;2022-07-06T14:45:39;1.73;;;1.15;;
19554;SDS011;9924;50.828;6.440;2022-07-06T14:48:07;1.15;;;0.50;;
19554;SDS011;9924;50.828;6.440;2022-07-06T14:50:33;0.93;;;0.52;;
19554;SDS011;9924;50.828;6.440;2022-07-06T14:53:00;2.60;;;0.60;;
19554;SDS011;9924;50.828;6.440;2022-07-06T14:55:26;0.95;;;0.63;;
19554;SDS011;9924;50.828;6.440;2022-07-06T14:57:52;5.45;;;1.00;;
19554;SDS011;9924;50.828;6.440;2022-07-06T15:00:20;2.42;;;0.70;;
19554;SDS011;9924;50.828;6.440;2022-07-06T15:02:46;1.33;;;0.60;;
19554;SDS011;9924;50.828;6.440;2022-07-06T15:05:12;0.90;;;0.52;;
19554;SDS011;9924;50.828;6.440;2022-07-06T15:07:38;2.15;;;0.68;;
19554;SDS011;9924;50.828;6.440;2022-07-06T15:10:04;1.67;;;0.50;;
19554;SDS011;9924;50.828;6.440;2022-07-06T15:12:31;3.08;;;0.73;;
19554;SDS011;9924;50.828;6.440;2022-07-06T15:14:57;0.82;;;0.47;;
19554;SDS011;9924;50.828;6.440;2022-07-06T15:17:23;0.50;;;0.50;;
19554;SDS011;9924;50.828;6.440;2022-07-06T15:19:49;1.35;;;0.70;;
19554;SDS011;9924;50.828;6.440;2022-07-06T15:22:15;4.10;;;0.90;;
19554;SDS011;9924;50.828;6.440;2022-07-06T15:24:41;8.48;;;4.15;;
19554;SDS011;9924;50.828;6.440;2022-07-06T15:27:06;2.50;;;1.20;;
19554;SDS011;9924;50.828;6.440;2022-07-06T15:29:32;2.65;;;0.77;;
19554;SDS011;9924;50.828;6.440;2022-07-06T15:31:59;3.55;;;0.85;;
19554;SDS011;9924;50.828;6.440;2022-07-06T15:34:25;4.32;;;0.75;;
19554;SDS011;9924;50.828;6.440;2022-07-06T15:36:51;2.17;;;0.80;;
19554;SDS011;9924;50.828;6.440;2022-07-06T15:39:18;3.60;;;0.77;;
19554;SDS011;9924;50.828;6.440;2022-07-06T15:41:44;1.77;;;0.60;;
19554;SDS011;9924;50.828;6.440;2022-07-06T15:44:10;2.45;;;0.90;;
19554;SDS011;9924;50.828;6.440;2022-07-06T15:46:36;2.30;;;1.13;;
19554;SDS011;9924;50.828;6.440;2022-07-06T15:49:02;3.30;;;0.90;;
19554;SDS011;9924;50.828;6.440;2022-07-06T15:51:29;2.08;;;0.93;;
19554;SDS011;9924;50.828;6.440;2022-07-06T15:53:55;2.00;;;0.70;;